Time;durP1;ratioP1;P1;durP2;ratioP2;P2;SDS_P1;SDS_P2;PMS_P1;PMS_P2;Temp;Humidity;BMP_temperature;BMP_pressure;BME280_temperature;BME280_humidity;BME280_pressure;Samples;Min_cycle;Max_cycle;Signal;HPM_P1;HPM_P2
2023/05/03 00:02:25;;;;;;;19.50;10.30;;;;;;;11.39;38.47;101112.09;105539;1258;60438;-67
2023/05/03 00:04:53;;;;;;;21.30;11.20;;;;;;;11.35;38.41;101112.21;105693;1257;60535;-69
2023/05/03 00:07:21;;;;;;;20.10;11.10;;;;;;;11.30;38.54;101107.98;105568;1256;67893;-69
2023/05/03 00:09:49;;;;;;;21.50;11.90;;;;;;;11.28;38.62;101110.91;105372;1254;60819;-69
2023/05/03 00:12:16;;;;;;;22.50;11.90;;;;;;;11.25;38.76;101111.52;105579;1254;66472;-68
2023/05/03 00:14:44;;;;;;;21.40;11.70;;;;;;;11.20;39.09;101112.40;105518;1257;60514;-68
2023/05/03 00:17:14;;;;;;;22.00;11.20;;;;;;;11.15;39.19;101116.77;105449;1254;60453;-68
2023/05/03 00:19:41;;;;;;;22.20;11.70;;;;;;;11.12;39.30;101116.28;105568;1254;66349;-67
2023/05/03 00:22:08;;;;;;;20.00;10.60;;;;;;;11.09;39.43;101113.84;105630;1254;60968;-69
2023/05/03 00:24:35;;;;;;;20.30;10.80;;;;;;;11.07;39.58;101109.56;105607;1257;66710;-69
2023/05/03 00:27:03;;;;;;;19.40;10.60;;;;;;;11.06;39.78;101107.70;105623;1259;60454;-70
2023/05/03 00:29:30;;;;;;;19.60;11.00;;;;;;;11.05;39.87;101108.12;105350;1262;60438;-69
2023/05/03 00:31:58;;;;;;;22.90;9.80;;;;;;;11.05;39.92;101112.34;105522;1254;67399;-67
2023/05/03 00:34:26;;;;;;;17.60;9.00;;;;;;;11.05;40.18;101110.83;105238;1262;60836;-69
2023/05/03 00:36:54;;;;;;;15.90;8.60;;;;;;;11.03;40.45;101107.91;105567;1257;65246;-74
2023/05/03 00:39:21;;;;;;;17.20;7.80;;;;;;;11.04;40.63;101107.70;105443;1254;60533;-69
2023/05/03 00:41:49;;;;;;;13.00;7.00;;;;;;;11.06;40.86;101107.73;105441;1254;60476;-69
2023/05/03 00:44:16;;;;;;;11.60;6.00;;;;;;;11.09;40.91;101108.94;105584;1259;67609;-67
2023/05/03 00:46:43;;;;;;;12.00;6.40;;;;;;;11.12;40.98;101111.38;105413;1254;60908;-69
2023/05/03 00:49:10;;;;;;;11.10;5.60;;;;;;;11.13;41.12;101112.13;105505;1254;66554;-68
2023/05/03 00:51:38;;;;;;;9.20;4.80;;;;;;;11.13;41.19;101110.73;105333;1257;60298;-69
2023/05/03 00:54:05;;;;;;;8.20;4.70;;;;;;;11.13;41.21;101108.86;105312;1259;59414;-68
2023/05/03 00:56:32;;;;;;;11.00;4.10;;;;;;;11.11;41.26;101102.41;104596;1257;992140;-69
2023/05/03 00:59:16;;;;;;;8.20;4.10;;;;;;;11.11;41.37;101108.63;105534;1254;60530;-67
2023/05/03 01:01:48;;;;;;;7.80;3.80;;;;;;;11.09;41.54;101106.64;105490;1254;66514;-69
2023/05/03 01:04:16;;;;;;;8.60;3.50;;;;;;;11.06;41.67;101106.16;105408;1253;61379;-69
2023/05/03 01:06:47;;;;;;;6.60;3.30;;;;;;;11.03;41.80;101102.84;105537;1254;61118;-69
2023/05/03 01:09:17;;;;;;;9.80;3.10;;;;;;;11.01;41.88;101099.95;105458;1254;66557;-69
2023/05/03 01:11:57;;;;;;;5.40;3.00;;;;;;;10.98;42.08;101100.90;105590;1254;61516;-68
2023/05/03 01:14:55;;;;;;;6.70;3.20;;;;;;;10.96;42.17;101102.44;105356;1254;66422;-68
2023/05/03 01:17:29;;;;;;;7.10;2.90;;;;;;;10.93;42.25;101098.80;105360;1262;60498;-70
2023/05/03 01:20:04;;;;;;;8.20;3.00;;;;;;;10.88;42.49;101097.36;105610;1262;60425;-68
2023/05/03 01:22:47;;;;;;;8.70;3.00;;;;;;;10.85;42.64;101097.70;105515;1255;67497;-69
2023/05/03 01:25:15;;;;;;;5.10;3.00;;;;;;;10.82;42.75;101094.59;105628;1254;61273;-70
2023/05/03 01:27:42;;;;;;;9.00;3.00;;;;;;;10.78;42.94;101098.22;105404;1257;65502;-68
2023/05/03 01:30:11;;;;;;;7.30;3.40;;;;;;;10.74;43.07;101097.25;105650;1257;60460;-69
2023/05/03 01:33:19;;;;;;;8.10;2.70;;;;;;;10.69;43.20;101094.58;105541;1253;60524;-69
2023/05/03 01:35:57;;;;;;;6.10;2.70;;;;;;;10.66;43.32;101092.55;105620;1254;67647;-69
2023/05/03 01:38:24;;;;;;;8.60;2.50;;;;;;;10.63;43.42;101092.08;105274;1254;60319;-68
2023/05/03 01:40:52;;;;;;;6.90;2.70;;;;;;;10.60;43.52;101089.59;105572;1254;66636;-68
2023/05/03 01:43:19;;;;;;;5.40;2.50;;;;;;;10.57;43.58;101085.72;105436;1261;60365;-68
2023/05/03 01:45:46;;;;;;;4.50;2.60;;;;;;;10.56;43.71;101088.79;105645;1259;60306;-68
2023/05/03 01:48:14;;;;;;;4.90;2.30;;;;;;;10.56;43.73;101086.31;105442;1254;67367;-73
2023/05/03 01:50:41;;;;;;;7.30;2.80;;;;;;;10.57;43.76;101084.66;105610;1254;60473;-67
2023/05/03 01:53:08;;;;;;;5.90;2.50;;;;;;;10.55;43.94;101084.63;105368;1254;66555;-72
2023/05/03 01:55:35;;;;;;;4.30;2.40;;;;;;;10.51;44.03;101080.01;105485;1259;60425;-68
2023/05/03 01:58:03;;;;;;;4.50;2.70;;;;;;;10.48;44.10;101083.05;105572;1261;60419;-70
2023/05/03 02:00:30;;;;;;;7.50;3.00;;;;;;;10.45;44.20;101084.25;105590;1254;66646;-68
2023/05/03 02:02:57;;;;;;;5.70;2.70;;;;;;;10.43;44.27;101083.89;105153;1262;60890;-69
2023/05/03 02:05:24;;;;;;;3.40;2.40;;;;;;;10.41;44.42;101083.15;105611;1255;65684;-68
2023/05/03 02:07:52;;;;;;;4.70;2.50;;;;;;;10.39;44.57;101084.16;105596;1260;60540;-70
2023/05/03 02:10:20;;;;;;;9.80;2.80;;;;;;;10.37;44.58;101081.16;105560;1254;60367;-71
2023/05/03 02:12:47;;;;;;;5.30;2.40;;;;;;;10.32;44.74;101080.36;105607;1254;66517;-69
2023/05/03 02:15:14;;;;;;;8.50;2.60;;;;;;;10.31;44.86;101081.52;105468;1254;60338;-69
2023/05/03 02:17:41;;;;;;;5.00;2.40;;;;;;;10.29;45.00;101084.09;105609;1254;66524;-68
2023/05/03 02:20:09;;;;;;;6.10;2.50;;;;;;;10.27;45.09;101088.63;105722;1257;60451;-68
2023/05/03 02:22:36;;;;;;;5.30;2.50;;;;;;;10.26;45.13;101092.05;105622;1259;60621;-70
2023/05/03 02:25:05;;;;;;;6.30;2.40;;;;;;;10.25;45.24;101091.06;105572;1254;67998;-69
2023/05/03 02:27:32;;;;;;;4.50;2.70;;;;;;;10.24;45.34;101092.03;105513;1254;60992;-69
2023/05/03 02:29:59;;;;;;;5.70;2.30;;;;;;;10.23;45.51;101095.10;105435;1254;66230;-69
2023/05/03 02:32:29;;;;;;;6.80;2.60;;;;;;;10.20;45.65;101096.84;105275;1254;60585;-70
2023/05/03 02:34:56;;;;;;;3.50;2.40;;;;;;;10.17;45.64;101095.61;105458;1254;60463;-68
2023/05/03 02:37:23;;;;;;;5.30;2.30;;;;;;;10.14;45.79;101095.13;105523;1259;67660;-67
2023/05/03 02:39:51;;;;;;;5.00;2.50;;;;;;;10.11;45.90;101093.17;105360;1254;60845;-68
2023/05/03 02:42:18;;;;;;;5.30;2.50;;;;;;;10.09;45.99;101095.44;105411;1257;66328;-73
2023/05/03 02:44:46;;;;;;;5.20;2.40;;;;;;;10.09;46.13;101088.78;105438;1259;62075;-69
2023/05/03 02:47:14;;;;;;;6.40;2.60;;;;;;;10.09;46.16;101089.08;105437;1254;62281;-68
2023/05/03 02:49:42;;;;;;;4.80;2.40;;;;;;;10.11;46.17;101092.50;105587;1261;67683;-69
2023/05/03 02:52:09;;;;;;;8.40;2.40;;;;;;;10.10;46.21;101091.65;105777;1254;60739;-69
2023/05/03 02:54:36;;;;;;;5.30;2.40;;;;;;;10.10;46.28;101095.90;105388;1258;65546;-69
2023/05/03 02:57:06;;;;;;;5.80;2.40;;;;;;;10.11;46.33;101094.46;105498;1254;60537;-67
2023/05/03 02:59:33;;;;;;;6.50;2.50;;;;;;;10.15;46.25;101093.28;105404;1259;60447;-68
2023/05/03 03:02:00;;;;;;;5.30;2.70;;;;;;;10.15;46.36;101095.59;105378;1259;67413;-70
2023/05/03 03:04:28;;;;;;;6.70;2.70;;;;;;;10.12;46.52;101093.68;105462;1254;60640;-68
2023/05/03 03:06:55;;;;;;;9.50;2.40;;;;;;;10.09;46.70;101099.65;105232;1257;65214;-69
2023/05/03 03:09:23;;;;;;;4.90;2.40;;;;;;;10.08;46.78;101099.73;105291;1260;60559;-69
2023/05/03 03:11:50;;;;;;;4.80;2.20;;;;;;;10.11;46.88;101103.37;105404;1261;60473;-68
2023/05/03 03:14:17;;;;;;;4.70;2.20;;;;;;;10.15;46.88;101100.67;105513;1254;67711;-68
2023/05/03 03:16:45;;;;;;;5.20;2.10;;;;;;;10.19;46.82;101097.95;105607;1254;60968;-68
2023/05/03 03:19:12;;;;;;;6.50;2.20;;;;;;;10.24;46.93;101102.76;105580;1256;66565;-68
2023/05/03 03:21:40;;;;;;;5.50;2.50;;;;;;;10.28;47.04;101103.02;105614;1257;60588;-69
2023/05/03 03:24:07;;;;;;;4.60;1.90;;;;;;;10.27;47.09;101104.81;105674;1259;60524;-69
2023/05/03 03:26:34;;;;;;;4.40;2.00;;;;;;;10.31;47.22;101107.95;105573;1260;67802;-68
2023/05/03 03:29:02;;;;;;;3.60;2.30;;;;;;;10.37;47.20;101108.78;105663;1259;60488;-68
2023/05/03 03:31:29;;;;;;;6.30;2.40;;;;;;;10.41;47.22;101109.55;105392;1261;66679;-69
2023/05/03 03:33:57;;;;;;;7.30;1.80;;;;;;;10.45;47.46;101110.55;105497;1260;60472;-68
2023/05/03 03:36:26;;;;;;;6.10;2.00;;;;;;;10.48;47.58;101111.17;105686;1254;60364;-69
2023/05/03 03:38:54;;;;;;;5.80;2.40;;;;;;;10.49;47.82;101113.41;105815;1256;67663;-70
2023/05/03 03:41:24;;;;;;;3.80;2.40;;;;;;;10.47;48.22;101115.84;105472;1254;61378;-69
2023/05/03 03:43:51;;;;;;;5.40;1.90;;;;;;;10.51;48.35;101115.72;105667;1254;66244;-69
2023/05/03 03:46:20;;;;;;;4.30;2.30;;;;;;;10.58;48.43;101114.89;105589;1254;60463;-68
2023/05/03 03:48:48;;;;;;;6.90;2.30;;;;;;;10.66;48.58;101111.94;105466;1255;60901;-68
2023/05/03 03:51:15;;;;;;;5.40;2.30;;;;;;;10.74;48.51;101115.90;105640;1254;66276;-71
2023/05/03 03:53:44;;;;;;;5.70;2.30;;;;;;;10.81;48.57;101112.60;105429;1259;60428;-69
2023/05/03 03:56:11;;;;;;;3.90;1.90;;;;;;;10.87;48.53;101115.36;105776;1254;68039;-70
2023/05/03 03:58:39;;;;;;;4.10;2.00;;;;;;;10.93;48.55;101112.57;105812;1257;60997;-68
2023/05/03 04:01:06;;;;;;;4.60;1.90;;;;;;;10.98;48.78;101115.02;105636;1257;60517;-69
2023/05/03 04:03:33;;;;;;;5.10;2.20;;;;;;;11.04;48.81;101117.02;105385;1254;67827;-72
2023/05/03 04:06:01;;;;;;;7.10;2.20;;;;;;;11.12;48.87;101119.13;105571;1252;61213;-70
2023/05/03 04:08:29;;;;;;;7.50;2.00;;;;;;;11.20;48.81;101117.29;105594;1254;66579;-68
2023/05/03 04:10:56;;;;;;;3.90;1.90;;;;;;;11.30;48.75;101118.91;105523;1256;60540;-69
2023/05/03 04:13:23;;;;;;;3.60;2.00;;;;;;;11.38;48.80;101119.39;105561;1255;60444;-69
2023/05/03 04:15:54;;;;;;;4.10;2.30;;;;;;;11.45;48.77;101120.44;105405;1254;67563;-67
2023/05/03 04:18:21;;;;;;;4.60;2.00;;;;;;;11.53;48.81;101124.12;105464;1262;60312;-67
2023/05/03 04:20:51;;;;;;;3.80;2.20;;;;;;;11.63;48.90;101123.60;105639;1258;66648;-78
2023/05/03 04:23:17;;;;;;;8.60;2.40;;;;;;;11.72;49.05;101122.41;105627;1257;60645;-69
2023/05/03 04:25:45;;;;;;;8.00;2.40;;;;;;;11.82;49.17;101123.11;105616;1254;60354;-68
2023/05/03 04:28:14;;;;;;;4.10;2.00;;;;;;;11.93;49.17;101122.89;105422;1260;67633;-67
2023/05/03 04:30:43;;;;;;;3.40;2.00;;;;;;;12.04;48.98;101125.92;105493;1254;60835;-68
2023/05/03 04:33:12;;;;;;;6.80;2.10;;;;;;;12.17;48.78;101127.65;105420;1256;74626;-68
2023/05/03 04:35:41;;;;;;;5.80;2.00;;;;;;;12.28;48.60;101123.58;105567;1254;60485;-72
2023/05/03 04:38:11;;;;;;;5.40;2.00;;;;;;;12.40;48.33;101121.83;105376;1254;60462;-67
2023/05/03 04:40:40;;;;;;;7.00;2.00;;;;;;;12.53;48.23;101122.82;105611;1254;67666;-68
2023/05/03 04:43:08;;;;;;;4.50;2.00;;;;;;;12.66;48.20;101121.42;105740;1254;61149;-69
2023/05/03 04:45:38;;;;;;;7.80;2.20;;;;;;;12.78;47.85;101120.02;105580;1254;66750;-69
2023/05/03 04:48:06;;;;;;;11.50;2.00;;;;;;;12.89;47.66;101121.57;105529;1253;60419;-68
2023/05/03 04:50:34;;;;;;;7.20;1.90;;;;;;;13.00;47.47;101118.80;105734;1255;60430;-70
2023/05/03 04:53:01;;;;;;;7.50;2.30;;;;;;;13.11;47.35;101119.91;105552;1254;67618;-69
2023/05/03 04:55:29;;;;;;;5.40;1.80;;;;;;;13.23;47.02;101119.88;105662;1254;61071;-69
2023/05/03 04:57:56;;;;;;;4.40;1.80;;;;;;;13.34;46.77;101122.58;105693;1254;66552;-68
2023/05/03 05:00:24;;;;;;;7.90;2.20;;;;;;;13.45;46.72;101120.75;105531;1262;60442;-69
2023/05/03 05:02:57;;;;;;;8.30;2.10;;;;;;;13.57;46.41;101122.69;105200;1254;60458;-68
2023/05/03 05:05:26;;;;;;;6.80;1.90;;;;;;;13.69;46.17;101122.05;105624;1259;67488;-74
2023/05/03 05:07:53;;;;;;;3.70;2.20;;;;;;;13.81;46.24;101123.16;105575;1259;60382;-68
2023/05/03 05:10:20;;;;;;;7.00;1.90;;;;;;;13.96;45.90;101124.99;105688;1254;66268;-70
2023/05/03 05:12:48;;;;;;;4.10;1.90;;;;;;;14.09;45.46;101122.14;105541;1254;60385;-71
2023/05/03 05:15:16;;;;;;;6.60;2.00;;;;;;;14.20;45.34;101122.09;105538;1253;60622;-68
2023/05/03 05:17:44;;;;;;;3.00;1.80;;;;;;;14.32;44.98;101120.76;105776;1260;66614;-68
2023/05/03 05:20:12;;;;;;;20.40;2.50;;;;;;;14.44;44.43;101116.76;105454;1254;61383;-74
2023/05/03 05:22:42;;;;;;;5.60;1.90;;;;;;;14.60;44.14;101117.02;105338;1254;66578;-68
2023/05/03 05:25:09;;;;;;;3.20;1.80;;;;;;;14.77;43.13;101118.19;105505;1254;60351;-69
2023/05/03 05:27:37;;;;;;;4.40;2.10;;;;;;;14.93;42.60;101116.84;105462;1260;60361;-68
2023/05/03 05:30:05;;;;;;;2.90;1.90;;;;;;;15.07;42.25;101117.09;105500;1254;67948;-68
2023/05/03 05:32:32;;;;;;;3.20;1.80;;;;;;;15.20;41.92;101117.51;105434;1262;60517;-67
2023/05/03 05:35:00;;;;;;;5.00;1.80;;;;;;;15.33;41.68;101114.94;105557;1254;66557;-67
2023/05/03 05:37:27;;;;;;;4.70;1.90;;;;;;;15.46;41.30;101114.02;105694;1254;60519;-70
2023/05/03 05:39:56;;;;;;;6.70;2.00;;;;;;;15.59;41.51;101117.80;105704;1254;60882;-68
2023/05/03 05:42:26;;;;;;;3.80;2.00;;;;;;;15.74;41.41;101111.17;105637;1254;66280;-72
2023/05/03 05:44:56;;;;;;;4.80;1.80;;;;;;;15.88;41.31;101107.39;105439;1261;60509;-69
2023/05/03 05:47:23;;;;;;;5.90;1.80;;;;;;;16.03;41.11;101108.90;105683;1257;65125;-68
2023/05/03 05:49:51;;;;;;;5.20;1.90;;;;;;;16.16;40.42;101106.60;105445;1254;60709;-68
2023/05/03 05:52:18;;;;;;;2.70;1.90;;;;;;;16.27;39.99;101105.79;105554;1254;60510;-69
2023/05/03 05:54:45;;;;;;;7.00;1.90;;;;;;;16.36;39.41;101102.86;105639;1260;67358;-68
2023/05/03 05:57:12;;;;;;;5.50;1.70;;;;;;;16.45;39.66;101097.61;105561;1259;60858;-68
2023/05/03 05:59:40;;;;;;;2.40;1.50;;;;;;;16.55;39.56;101098.23;105715;1254;66278;-68
2023/05/03 06:02:13;;;;;;;4.50;1.80;;;;;;;16.65;39.42;101096.77;105598;1254;60523;-67
2023/05/03 06:04:40;;;;;;;;;;;;;;;16.73;38.92;101100.48;109156;1253;58177;-67
2023/05/03 06:07:07;;;;;;;5.10;1.70;;;;;;;16.80;38.93;101102.34;109037;1254;67130;-66
2023/05/03 06:09:34;;;;;;;3.70;1.50;;;;;;;16.88;38.74;101101.72;109417;1253;60931;-67
2023/05/03 06:12:03;;;;;;;4.10;1.60;;;;;;;16.95;38.76;101099.27;109194;1254;65806;-68
2023/05/03 06:14:31;;;;;;;3.60;1.50;;;;;;;17.03;38.71;101097.85;109171;1254;58216;-67
2023/05/03 06:16:59;;;;;;;4.60;1.50;;;;;;;17.11;38.76;101094.02;109063;1253;58230;-72
2023/05/03 06:19:26;;;;;;;2.70;1.60;;;;;;;17.21;38.31;101096.09;109369;1253;66125;-70
2023/05/03 06:21:53;;;;;;;5.00;1.40;;;;;;;17.29;37.91;101096.04;109263;1254;60687;-69
2023/05/03 06:24:20;;;;;;;6.00;1.40;;;;;;;17.36;37.60;101097.88;109238;1254;65980;-70
2023/05/03 06:26:50;;;;;;;4.80;1.40;;;;;;;17.43;37.34;101097.19;109213;1254;58169;-71
2023/05/03 06:29:17;;;;;;;4.10;1.50;;;;;;;17.50;37.53;101096.35;109237;1254;58194;-69
2023/05/03 06:31:44;;;;;;;6.50;1.70;;;;;;;17.59;37.61;101096.92;109311;1254;67366;-69
2023/05/03 06:34:12;;;;;;;2.90;1.70;;;;;;;17.70;37.33;101096.52;109270;1254;59630;-69
2023/05/03 06:36:40;;;;;;;6.90;1.70;;;;;;;17.77;36.82;101098.89;109301;1254;65123;-69
2023/05/03 06:39:08;;;;;;;3.50;1.60;;;;;;;17.81;36.58;101096.73;109246;1256;58164;-69
2023/05/03 06:41:35;;;;;;;2.50;1.50;;;;;;;17.85;36.83;101097.56;109139;1254;58052;-68
2023/05/03 06:44:03;;;;;;;9.70;1.90;;;;;;;17.89;36.85;101104.23;109280;1254;67279;-68
2023/05/03 06:46:30;;;;;;;7.40;1.70;;;;;;;17.95;36.40;101105.63;109286;1254;59346;-68
2023/05/03 06:48:57;;;;;;;3.70;1.40;;;;;;;18.05;36.43;101104.52;109239;1254;65315;-69
2023/05/03 06:51:27;;;;;;;4.30;1.40;;;;;;;18.17;35.81;101107.91;109218;1257;58152;-69
2023/05/03 06:53:55;;;;;;;2.90;1.80;;;;;;;18.27;35.78;101106.33;109256;1254;58183;-71
2023/05/03 06:56:22;;;;;;;4.30;1.50;;;;;;;18.39;35.59;101104.83;109073;1254;66292;-71
2023/05/03 06:58:49;;;;;;;5.50;1.40;;;;;;;18.49;35.33;101100.02;109324;1254;60306;-71
2023/05/03 07:01:17;;;;;;;4.60;1.60;;;;;;;18.60;35.30;101104.65;109284;1257;65168;-71
2023/05/03 07:03:45;;;;;;;5.80;1.80;;;;;;;18.69;34.96;101107.79;109296;1254;58126;-70
2023/05/03 07:06:12;;;;;;;3.80;1.60;;;;;;;18.80;34.87;101100.98;109325;1259;58245;-71
2023/05/03 07:08:39;;;;;;;4.80;1.90;;;;;;;18.92;34.87;101100.08;109247;1254;67135;-71
2023/05/03 07:11:06;;;;;;;2.90;1.30;;;;;;;19.03;34.89;101099.52;109333;1254;59266;-69
2023/05/03 07:13:33;;;;;;;5.00;1.70;;;;;;;19.12;34.87;101098.69;109244;1254;65961;-69
2023/05/03 07:16:00;;;;;;;2.60;1.40;;;;;;;19.23;34.51;101101.02;109287;1254;58604;-70
2023/05/03 07:18:29;;;;;;;7.40;1.50;;;;;;;19.31;34.49;101098.71;109242;1254;58022;-70
2023/05/03 07:20:56;;;;;;;2.50;1.40;;;;;;;19.41;34.78;101100.49;109151;1254;67457;-71
2023/05/03 07:23:24;;;;;;;3.90;1.20;;;;;;;19.56;34.62;101101.98;109334;1254;60382;-70
2023/05/03 07:30:25;;;;;;;3.60;1.50;;;;;;;19.81;33.00;101106.19;109410;1254;58217;-71
2023/05/03 07:32:51;;;;;;;6.70;1.60;;;;;;;19.87;32.90;101101.17;109376;1254;58117;-71
2023/05/03 07:35:18;;;;;;;4.30;1.60;;;;;;;19.95;33.24;101103.19;109352;1254;66306;-71
2023/05/03 07:42:22;;;;;;;5.20;1.50;;;;;;;20.25;32.65;101106.14;109249;1256;65013;-70
2023/05/03 07:44:49;;;;;;;7.20;1.60;;;;;;;20.38;32.44;101102.80;109281;1256;58126;-70
2023/05/03 07:47:16;;;;;;;3.60;1.40;;;;;;;20.49;32.66;101105.61;109301;1257;58219;-70
2023/05/03 07:49:42;;;;;;;5.10;1.30;;;;;;;20.58;32.52;101105.06;109304;1254;66606;-70
2023/05/03 07:52:09;;;;;;;7.60;1.80;;;;;;;20.69;32.23;101105.32;109199;1254;59295;-70
2023/05/03 07:54:36;;;;;;;4.70;1.90;;;;;;;20.82;32.19;101100.27;109268;1254;64995;-70
2023/05/03 08:01:52;;;;;;;3.40;1.20;;;;;;;20.98;30.46;101102.73;109438;1255;58057;-69
2023/05/03 08:04:20;;;;;;;5.80;1.50;;;;;;;21.00;30.64;101100.19;109309;1256;66461;-72
2023/05/03 08:06:51;;;;;;;5.80;1.60;;;;;;;21.02;30.50;101106.10;109133;1254;58268;-70
2023/05/03 08:13:52;;;;;;;3.50;1.30;;;;;;;21.14;30.30;101108.15;109418;1256;58100;-71
2023/05/03 08:16:19;;;;;;;2.90;1.20;;;;;;;21.22;30.52;101103.32;109283;1256;58210;-69
2023/05/03 08:18:46;;;;;;;5.20;1.30;;;;;;;21.25;30.49;101094.33;109208;1256;67243;-67
2023/05/03 08:21:13;;;;;;;4.80;1.60;;;;;;;21.31;30.55;101093.91;109306;1256;59227;-69
2023/05/03 08:23:41;;;;;;;3.70;1.40;;;;;;;21.38;30.43;101093.27;109163;1257;66224;-67
2023/05/03 08:26:09;;;;;;;2.00;1.10;;;;;;;21.45;30.70;101091.40;109264;1257;58187;-68
2023/05/03 08:28:36;;;;;;;6.40;1.30;;;;;;;21.55;30.46;101089.30;109156;1256;58232;-70
2023/05/03 08:31:04;;;;;;;2.60;1.40;;;;;;;21.70;31.00;101087.77;108992;1256;65940;-70
2023/05/03 08:33:31;;;;;;;3.70;1.40;;;;;;;21.88;30.30;101089.30;109303;1256;60665;-68
2023/05/03 08:35:58;;;;;;;2.80;1.10;;;;;;;21.95;29.21;101088.08;109267;1257;66047;-70
2023/05/03 08:38:25;;;;;;;5.10;1.40;;;;;;;21.99;28.92;101088.52;108987;1257;58124;-71
2023/05/03 08:40:52;;;;;;;2.70;1.20;;;;;;;22.07;28.92;101086.23;109148;1257;58296;-69
2023/05/03 08:43:19;;;;;;;5.90;1.40;;;;;;;22.10;28.77;101087.40;109170;1256;67114;-69
2023/05/03 08:45:46;;;;;;;6.10;1.50;;;;;;;22.17;28.74;101090.75;109236;1257;60473;-72
2023/05/03 08:48:14;;;;;;;4.90;1.30;;;;;;;22.25;28.93;101087.29;109110;1257;64953;-74
2023/05/03 08:50:41;;;;;;;5.30;1.10;;;;;;;22.36;29.13;101076.95;108914;1260;58055;-70
2023/05/03 08:53:11;;;;;;;3.10;1.10;;;;;;;22.41;28.52;101074.27;109267;1256;58521;-71
2023/05/03 08:55:39;;;;;;;3.40;1.10;;;;;;;22.34;28.62;101074.98;109312;1255;65252;-68
2023/05/03 09:02:40;;;;;;;4.30;1.00;;;;;;;22.28;29.12;101071.34;109272;1254;65912;-71
2023/05/03 09:05:14;;;;;;;2.20;1.30;;;;;;;22.34;28.91;101069.21;109054;1256;58171;-67
2023/05/03 09:08:04;;;;;;;2.20;1.30;;;;;;;22.35;28.38;101051.98;109166;1254;58243;-71
2023/05/03 09:10:32;;;;;;;9.00;2.10;;;;;;;22.42;28.55;101052.91;109303;1254;67345;-67
2023/05/03 09:13:01;;;;;;;4.60;1.20;;;;;;;22.54;28.55;101058.90;109204;1254;60378;-67
2023/05/03 09:15:29;;;;;;;4.60;1.20;;;;;;;22.67;28.10;101055.50;109171;1254;64907;-66
2023/05/03 09:18:06;;;;;;;4.90;1.30;;;;;;;22.71;27.54;101050.42;109257;1257;58133;-67
2023/05/03 09:20:35;;;;;;;5.80;1.00;;;;;;;22.59;26.26;101056.46;109147;1259;58042;-68
2023/05/03 09:23:02;;;;;;;5.70;1.00;;;;;;;22.48;25.91;101052.39;109322;1254;67746;-68
2023/05/03 09:25:49;;;;;;;7.40;1.20;;;;;;;22.41;26.24;101058.70;109311;1254;60347;-66
2023/05/03 09:28:16;;;;;;;5.00;1.10;;;;;;;22.36;26.35;101055.79;109183;1254;65970;-66
2023/05/03 09:30:43;;;;;;;1.60;1.00;;;;;;;22.36;26.51;101056.23;109273;1257;61609;-73
2023/05/03 09:33:10;;;;;;;2.60;1.20;;;;;;;22.42;27.12;101053.66;109101;1254;58064;-67
2023/05/03 09:35:38;;;;;;;1.70;0.90;;;;;;;22.48;27.21;101054.98;109182;1254;67128;-73
2023/05/03 09:38:05;;;;;;;3.10;1.20;;;;;;;22.43;27.18;101050.29;109238;1259;60224;-69
2023/05/03 09:40:32;;;;;;;2.90;1.00;;;;;;;22.46;26.72;101054.07;109237;1254;65978;-71
2023/05/03 09:43:08;;;;;;;4.00;1.20;;;;;;;22.63;26.48;101054.58;109228;1254;58235;-70
2023/05/03 09:45:39;;;;;;;2.20;1.10;;;;;;;22.89;27.11;101048.42;109244;1254;58078;-67
2023/05/03 09:52:56;;;;;;;6.10;1.20;;;;;;;23.48;26.40;101045.83;109455;1254;58193;-70
2023/05/03 09:55:23;;;;;;;5.30;1.10;;;;;;;23.66;26.39;101044.89;109233;1254;64857;-71
2023/05/03 09:57:50;;;;;;;4.00;1.10;;;;;;;23.82;26.23;101032.48;109219;1254;58171;-68
2023/05/03 10:00:19;;;;;;;5.70;1.10;;;;;;;24.02;26.18;101033.27;109138;1254;58260;-70
2023/05/03 10:02:47;;;;;;;3.90;1.00;;;;;;;24.15;25.10;101037.70;109364;1255;66165;-68
2023/05/03 10:05:15;;;;;;;1.80;1.00;;;;;;;24.10;24.84;101034.09;109159;1255;60360;-70
2023/05/03 10:12:16;;;;;;;3.90;1.00;;;;;;;23.98;24.49;101038.27;109327;1257;58189;-69
2023/05/03 10:14:44;;;;;;;4.00;1.00;;;;;;;23.97;24.95;101029.48;109305;1254;58117;-68
2023/05/03 10:17:25;;;;;;;2.40;1.20;;;;;;;24.10;25.00;101031.19;109291;1260;67165;-69
2023/05/03 10:20:16;;;;;;;2.50;1.10;;;;;;;24.28;24.94;101028.56;109197;1254;59660;-69
2023/05/03 10:23:05;;;;;;;5.00;1.20;;;;;;;24.45;24.32;101033.04;109060;1255;65807;-68
2023/05/03 10:25:34;;;;;;;4.30;1.10;;;;;;;24.62;24.25;101022.30;109229;1254;58086;-69
2023/05/03 10:28:06;;;;;;;2.50;1.00;;;;;;;24.79;24.55;101015.30;109100;1254;58091;-68
2023/05/03 10:30:33;;;;;;;2.10;1.00;;;;;;;25.02;24.04;101022.63;109392;1254;66194;-69
2023/05/03 10:33:27;;;;;;;3.70;1.20;;;;;;;25.06;23.17;101021.50;109223;1254;59232;-70
2023/05/03 10:35:54;;;;;;;3.70;1.10;;;;;;;25.07;23.54;101022.00;109133;1256;66331;-69
2023/05/03 10:38:25;;;;;;;2.90;0.90;;;;;;;25.13;23.38;101021.00;109260;1257;58157;-70
2023/05/03 10:40:54;;;;;;;4.80;1.10;;;;;;;25.26;23.83;101013.39;109112;1257;58044;-69
2023/05/03 10:43:32;;;;;;;4.30;1.30;;;;;;;25.42;23.70;101016.77;109224;1257;67178;-71
2023/05/03 10:46:05;;;;;;;2.30;1.10;;;;;;;25.48;23.21;101018.23;109141;1255;60320;-71
2023/05/03 10:48:44;;;;;;;5.40;1.10;;;;;;;25.53;23.24;101010.82;109078;1257;64324;-69
2023/05/03 10:51:37;;;;;;;5.90;1.30;;;;;;;25.65;23.23;101008.89;109212;1257;58483;-73
2023/05/03 10:54:04;;;;;;;4.20;1.00;;;;;;;25.77;22.49;101006.98;109124;1256;58110;-70
2023/05/03 10:56:31;;;;;;;3.10;0.90;;;;;;;25.80;22.20;101003.98;109209;1256;67371;-68
2023/05/03 10:58:58;;;;;;;3.30;1.00;;;;;;;25.85;22.89;101002.99;109156;1257;60865;-69
2023/05/03 11:01:25;;;;;;;3.80;1.10;;;;;;;25.91;22.87;101005.33;109219;1257;66611;-68
2023/05/03 11:03:55;;;;;;;4.20;0.90;;;;;;;25.96;22.97;101004.05;108999;1258;58292;-68
2023/05/03 11:06:31;;;;;;;3.90;1.00;;;;;;;25.98;23.07;101004.46;109127;1256;58070;-69
2023/05/03 11:08:59;;;;;;;4.30;1.10;;;;;;;25.97;23.07;101000.80;109074;1256;67329;-68
2023/05/03 11:11:26;;;;;;;2.90;1.00;;;;;;;25.97;22.87;101003.48;109207;1256;59508;-68
2023/05/03 11:13:53;;;;;;;3.90;0.90;;;;;;;26.01;22.63;100993.77;109149;1257;64665;-68
2023/05/03 11:16:20;;;;;;;8.00;1.00;;;;;;;26.05;22.45;100984.34;109098;1256;58222;-69
2023/05/03 11:18:47;;;;;;;4.30;1.10;;;;;;;26.11;22.55;100984.64;109053;1257;58137;-68
2023/05/03 11:21:15;;;;;;;4.50;1.00;;;;;;;26.21;22.40;100992.41;109128;1257;66805;-69
2023/05/03 11:23:42;;;;;;;2.40;0.90;;;;;;;26.30;22.36;100991.54;109217;1257;60318;-69
2023/05/03 11:26:09;;;;;;;10.30;1.30;;;;;;;26.34;21.89;100986.66;109097;1257;64838;-68
2023/05/03 11:28:40;;;;;;;4.30;1.10;;;;;;;26.33;22.44;100980.86;109161;1257;58117;-68
2023/05/03 11:31:08;;;;;;;3.80;0.90;;;;;;;26.39;22.61;100984.98;109076;1256;58054;-70
2023/05/03 11:33:36;;;;;;;4.90;1.00;;;;;;;26.46;22.40;100979.59;109108;1257;67285;-69
2023/05/03 11:36:05;;;;;;;6.00;1.20;;;;;;;26.48;21.69;100981.25;109118;1257;60529;-68
2023/05/03 11:38:32;;;;;;;5.20;1.00;;;;;;;26.42;21.46;100976.05;108960;1257;66366;-67
2023/05/03 11:40:59;;;;;;;4.20;0.90;;;;;;;26.31;21.53;100976.13;109064;1257;58230;-68
2023/05/03 11:43:27;;;;;;;3.10;0.80;;;;;;;26.18;21.93;100973.67;109048;1257;58040;-67
2023/05/03 11:45:56;;;;;;;4.90;1.10;;;;;;;26.17;22.27;100970.84;109146;1257;67175;-69
2023/05/03 11:48:26;;;;;;;3.90;1.20;;;;;;;26.30;22.11;100965.95;109079;1256;59346;-66
2023/05/03 11:50:54;;;;;;;2.70;0.90;;;;;;;26.43;22.21;100960.16;109096;1261;65106;-66
2023/05/03 11:53:22;;;;;;;3.40;1.20;;;;;;;26.57;22.02;100967.19;109072;1257;58225;-75
2023/05/03 11:55:52;;;;;;;5.80;0.80;;;;;;;26.73;22.07;100964.17;109033;1257;58233;-68
2023/05/03 11:58:26;;;;;;;3.90;0.90;;;;;;;26.92;20.92;100965.56;109038;1257;67152;-72